EETN/TLL METAR and TAF weather

Enter ICAO airport designator
Station Type Date Time Source
EETN METAR 2019/04/19 22:20 UTC NOAA

EETN 192220Z 33005KT CAVOK 08/02 Q1030


Station Type Date Time Source
EETN Decoded METAR 2019/04/19 22:20 UTC NOAA

Tallinn, Estonia (EETN) 59-24N 024-49E 34M
Apr 19, 2019 - 06:20 PM EDT / 2019.04.19 2220 UTC
Wind: from the NNW (330 degrees) at 6 MPH (5 KT):0
Visibility: greater than 7 mile(s):0
Temperature: 46 F (8 C)
Dew Point: 35 F (2 C)
Relative Humidity: 65%
Pressure (altimeter): 30.42 in. Hg (1030 hPa)
ob: EETN 192220Z 33005KT CAVOK 08/02 Q1030
cycle: 22

Station Type Date Time Source
EETN TAF 2019/04/19 18:03 UTC NOAA

TAF TAF EETN 191700Z 1918/2018 30007KT CAVOK
BECMG 1919/1921 SCT015 BKN045
BECMG 2000/2002 36010KT PROB40
TEMPO 2009/2016 BKN015

Example: see airport list